Buoy 46930

sailwx.info

Track history (hours):
 
Tides and Currents Weather Stations Pressure Air Temp Water Temp Dewpoint Dewpoint Depression Visibility Wind Speed Wind Dir Waves Ship Positions

Drifting buoy 46930

Last reported at 2016-Jul-30 04:00 UTC. Time now 2016-Jul-30 07:20 UTC.
Position N 19°38' W 159°49'.

Date/timePositionNaut miles runAvg speedWind from/ knotsBaromVisibWave heightAir tempDewpointWater temp
2016-Jul-30 04:00N 19°38' W 159°49'1 0.6
2016-Jul-30 03:00N 19°38' W 159°50'6 0.7
2016-Jul-29 18:00N 19°35' W 159°56'0 0.3
2016-Jul-29 17:00N 19°36' W 159°56'1 0.8
2016-Jul-29 16:00N 19°35' W 159°57'6 0.7
2016-Jul-29 07:00N 19°32' W 160°03'1 1.3
2016-Jul-29 06:00N 19°33' W 160°04'0 0.4
2016-Jul-29 05:00N 19°32' W 160°04'1 0.9
2016-Jul-29 04:00N 19°33' W 160°05'1 1.4
2016-Jul-29 03:00N 19°33' W 160°07'0 0.0
2016-Jul-29 02:00N 19°33' W 160°07'8 0.9
2016-Jul-28 17:00N 19°29' W 160°15'2 1.1
2016-Jul-28 15:00N 19°28' W 160°17'7 1.0
2016-Jul-28 08:00N 19°25' W 160°23'1 0.8
2016-Jul-28 07:00N 19°24' W 160°24'2 0.7
2016-Jul-28 04:00N 19°24' W 160°26'1 1.1
2016-Jul-28 03:00N 19°24' W 160°27'7 0.7
2016-Jul-27 17:00N 19°21' W 160°35'0 0.2
2016-Jul-27 16:00N 19°21' W 160°35'9 1.0
2016-Jul-27 07:00N 19°17' W 160°44'0 0.0
2016-Jul-27 05:00N 19°17' W 160°44'3 1.6
2016-Jul-27 03:00N 19°16' W 160°47'8 0.8
2016-Jul-26 17:00N 19°09' W 160°50'0 0.3
2016-Jul-26 16:00N 19°09' W 160°51'7 0.8
2016-Jul-26 07:00N 19°02' W 160°54'1 0.6
2016-Jul-26 05:00N 19°01' W 160°54'2 0.6
2016-Jul-26 01:00N 18°59' W 160°55'1 0.7
2016-Jul-25 23:00N 18°57' W 160°55'4 0.8
2016-Jul-25 18:00N 18°54' W 160°57'1 0.6
2016-Jul-25 16:00N 18°53' W 160°57'1 0.8
2016-Jul-25 15:00N 18°52' W 160°57'2 0.3
2016-Jul-25 08:00N 18°50' W 160°58'1 0.5
2016-Jul-25 06:00N 18°49' W 160°59'1 0.4
2016-Jul-25 04:00N 18°49' W 160°59'1 0.6
2016-Jul-25 02:00N 18°47' W 160°59'0 0.0
2016-Jul-25 01:00N 18°47' W 160°59'1 0.3
2016-Jul-24 23:00N 18°47' W 160°59'2 0.3
2016-Jul-24 16:00N 18°45' W 160°58'0 0.2
2016-Jul-24 15:00N 18°45' W 160°58'5 0.4
2016-Jul-24 04:00N 18°41' W 160°56'0 0.1
2016-Jul-24 03:00N 18°41' W 160°56'1 0.8
2016-Jul-24 02:00N 18°41' W 160°55'0 0.0
2016-Jul-24 01:00N 18°41' W 160°55'5 0.6
2016-Jul-23 17:00N 18°38' W 160°50'1 0.8
2016-Jul-23 16:00N 18°38' W 160°50'5 0.5
2016-Jul-23 07:00N 18°35' W 160°46'1 0.5
2016-Jul-23 04:00N 18°34' W 160°45'1 0.7
2016-Jul-23 03:00N 18°33' W 160°45'1 1.0
2016-Jul-23 02:00N 18°33' W 160°45'2 2.0
2016-Jul-23 01:00N 18°32' W 160°43'6 0.9
2016-Jul-22 18:00N 18°29' W 160°37'0 0.1
2016-Jul-22 17:00N 18°29' W 160°37'3 1.4
2016-Jul-22 15:00N 18°28' W 160°34'10 0.9
2016-Jul-22 04:00N 18°28' W 160°24'1 0.7
2016-Jul-22 03:00N 18°28' W 160°23'1 1.2
2016-Jul-22 02:00N 18°28' W 160°22'9 1.0
2016-Jul-21 17:00N 18°31' W 160°13'1 0.7
2016-Jul-21 16:00N 18°32' W 160°13'1 1.2
2016-Jul-21 15:00N 18°33' W 160°12'6 0.7
2016-Jul-21 07:00N 18°35' W 160°06'0 0.1
2016-Jul-21 04:00N 18°36' W 160°06'1 0.5
2016-Jul-21 03:00N 18°36' W 160°05'0 0.1
2016-Jul-21 02:00N 18°36' W 160°05'4 0.6
2016-Jul-20 20:00N 18°35' W 160°02'1 0.4
2016-Jul-20 18:00N 18°36' W 160°01'1 1.0
2016-Jul-20 17:00N 18°36' W 160°00'0 0.3
2016-Jul-20 16:00N 18°36' W 159°60'1 0.7
2016-Jul-20 15:00N 18°36' W 159°59'1 1.2
2016-Jul-20 14:00N 18°37' W 159°58'2 0.4
2016-Jul-20 09:00N 18°37' W 159°56'1 0.4
2016-Jul-20 07:00N 18°37' W 159°55'2 1.7
2016-Jul-20 06:00N 18°38' W 159°54'  
Track history (hours):
 
Tides and Currents Weather Stations Pressure Air Temp Water Temp Dewpoint Dewpoint Depression Visibility Wind Speed Wind Dir Waves Ship Positions

Drifting buoy 46930

Last reported at 2016-Jul-30 04:00 UTC. Time now 2016-Jul-30 07:20 UTC.
Position N 19°38' W 159°49'.

Date/timePositionNaut miles runAvg speedWind from/ knotsBaromVisibWave heightAir tempDewpointWater temp
2016-Jul-30 04:00N 19°38' W 159°49'1 0.6
2016-Jul-30 03:00N 19°38' W 159°50'6 0.7
2016-Jul-29 18:00N 19°35' W 159°56'0 0.3
2016-Jul-29 17:00N 19°36' W 159°56'1 0.8
2016-Jul-29 16:00N 19°35' W 159°57'6 0.7
2016-Jul-29 07:00N 19°32' W 160°03'1 1.3
2016-Jul-29 06:00N 19°33' W 160°04'0 0.4
2016-Jul-29 05:00N 19°32' W 160°04'1 0.9
2016-Jul-29 04:00N 19°33' W 160°05'1 1.4
2016-Jul-29 03:00N 19°33' W 160°07'0 0.0
2016-Jul-29 02:00N 19°33' W 160°07'8 0.9
2016-Jul-28 17:00N 19°29' W 160°15'2 1.1
2016-Jul-28 15:00N 19°28' W 160°17'7 1.0
2016-Jul-28 08:00N 19°25' W 160°23'1 0.8
2016-Jul-28 07:00N 19°24' W 160°24'2 0.7
2016-Jul-28 04:00N 19°24' W 160°26'1 1.1
2016-Jul-28 03:00N 19°24' W 160°27'7 0.7
2016-Jul-27 17:00N 19°21' W 160°35'0 0.2
2016-Jul-27 16:00N 19°21' W 160°35'9 1.0
2016-Jul-27 07:00N 19°17' W 160°44'0 0.0
2016-Jul-27 05:00N 19°17' W 160°44'3 1.6
2016-Jul-27 03:00N 19°16' W 160°47'8 0.8
2016-Jul-26 17:00N 19°09' W 160°50'0 0.3
2016-Jul-26 16:00N 19°09' W 160°51'7 0.8
2016-Jul-26 07:00N 19°02' W 160°54'1 0.6
2016-Jul-26 05:00N 19°01' W 160°54'2 0.6
2016-Jul-26 01:00N 18°59' W 160°55'1 0.7
2016-Jul-25 23:00N 18°57' W 160°55'4 0.8
2016-Jul-25 18:00N 18°54' W 160°57'1 0.6
2016-Jul-25 16:00N 18°53' W 160°57'1 0.8
2016-Jul-25 15:00N 18°52' W 160°57'2 0.3
2016-Jul-25 08:00N 18°50' W 160°58'1 0.5
2016-Jul-25 06:00N 18°49' W 160°59'1 0.4
2016-Jul-25 04:00N 18°49' W 160°59'1 0.6
2016-Jul-25 02:00N 18°47' W 160°59'0 0.0
2016-Jul-25 01:00N 18°47' W 160°59'1 0.3
2016-Jul-24 23:00N 18°47' W 160°59'2 0.3
2016-Jul-24 16:00N 18°45' W 160°58'0 0.2
2016-Jul-24 15:00N 18°45' W 160°58'5 0.4
2016-Jul-24 04:00N 18°41' W 160°56'0 0.1
2016-Jul-24 03:00N 18°41' W 160°56'1 0.8
2016-Jul-24 02:00N 18°41' W 160°55'0 0.0
2016-Jul-24 01:00N 18°41' W 160°55'5 0.6
2016-Jul-23 17:00N 18°38' W 160°50'1 0.8
2016-Jul-23 16:00N 18°38' W 160°50'5 0.5
2016-Jul-23 07:00N 18°35' W 160°46'1 0.5
2016-Jul-23 04:00N 18°34' W 160°45'1 0.7
2016-Jul-23 03:00N 18°33' W 160°45'1 1.0
2016-Jul-23 02:00N 18°33' W 160°45'2 2.0
2016-Jul-23 01:00N 18°32' W 160°43'6 0.9
2016-Jul-22 18:00N 18°29' W 160°37'0 0.1
2016-Jul-22 17:00N 18°29' W 160°37'3 1.4
2016-Jul-22 15:00N 18°28' W 160°34'10 0.9
2016-Jul-22 04:00N 18°28' W 160°24'1 0.7
2016-Jul-22 03:00N 18°28' W 160°23'1 1.2
2016-Jul-22 02:00N 18°28' W 160°22'9 1.0
2016-Jul-21 17:00N 18°31' W 160°13'1 0.7
2016-Jul-21 16:00N 18°32' W 160°13'1 1.2
2016-Jul-21 15:00N 18°33' W 160°12'6 0.7
2016-Jul-21 07:00N 18°35' W 160°06'0 0.1
2016-Jul-21 04:00N 18°36' W 160°06'1 0.5
2016-Jul-21 03:00N 18°36' W 160°05'0 0.1
2016-Jul-21 02:00N 18°36' W 160°05'4 0.6
2016-Jul-20 20:00N 18°35' W 160°02'1 0.4
2016-Jul-20 18:00N 18°36' W 160°01'1 1.0
2016-Jul-20 17:00N 18°36' W 160°00'0 0.3
2016-Jul-20 16:00N 18°36' W 159°60'1 0.7
2016-Jul-20 15:00N 18°36' W 159°59'1 1.2
2016-Jul-20 14:00N 18°37' W 159°58'2 0.4
2016-Jul-20 09:00N 18°37' W 159°56'1 0.4
2016-Jul-20 07:00N 18°37' W 159°55'2 1.7
2016-Jul-20 06:00N 18°38' W 159°54'  

Dump ship's entire track history